Time;durP1;ratioP1;P1;durP2;ratioP2;P2;SDS_P1;SDS_P2;PMS_P1;PMS_P2;Temp;Humidity;BMP_temperature;BMP_pressure;BME280_temperature;BME280_humidity;BME280_pressure;Samples;Min_cycle;Max_cycle;Signal;HPM_P1;HPM_P2
2023/04/09 00:02:21;;;;;;;0.45;0.20;;;;;;;8.74;69.55;101092.81;5030262;28;20037;-77
2023/04/09 00:04:47;;;;;;;0.40;0.20;;;;;;;8.70;69.63;101092.22;5027458;28;20095;-77
2023/04/09 00:07:12;;;;;;;0.55;0.30;;;;;;;8.69;69.77;101094.94;5026953;28;20117;-77
2023/04/09 00:09:38;;;;;;;0.82;0.32;;;;;;;8.71;69.31;101083.50;5022661;28;20077;-78
2023/04/09 00:12:03;;;;;;;0.20;0.10;;;;;;;8.76;69.42;101086.56;5022105;28;20475;-77
2023/04/09 00:14:29;;;;;;;0.38;0.17;;;;;;;8.81;69.77;101086.22;5022895;28;20485;-79
2023/04/09 00:16:54;;;;;;;0.30;0.13;;;;;;;8.78;69.69;101084.69;5031631;28;20040;-78
2023/04/09 00:19:20;;;;;;;0.40;0.17;;;;;;;8.79;69.92;101081.13;5026331;28;20112;-79
2023/04/09 00:21:45;;;;;;;0.50;0.10;;;;;;;8.78;70.54;101081.25;5032536;28;20061;-80
2023/04/09 00:24:11;;;;;;;0.43;0.30;;;;;;;8.68;71.86;101088.94;5025949;28;20033;-80
2023/04/09 00:26:37;;;;;;;0.70;0.30;;;;;;;8.59;73.13;101093.03;5021110;28;20041;-80
2023/04/09 00:29:02;;;;;;;1.00;0.30;;;;;;;8.49;74.27;101089.50;5026902;28;20025;-79
2023/04/09 00:31:27;;;;;;;0.65;0.20;;;;;;;8.42;74.21;101084.91;5037304;28;20116;-78
2023/04/09 00:33:53;;;;;;;0.40;0.20;;;;;;;8.45;74.49;101088.09;5027061;28;20108;-80
2023/04/09 00:36:18;;;;;;;0.40;0.17;;;;;;;8.48;73.97;101087.84;5025243;28;20182;-80
2023/04/09 00:38:45;;;;;;;0.20;0.10;;;;;;;8.52;73.95;101088.44;5028487;28;20028;-80
2023/04/09 00:41:10;;;;;;;0.82;0.20;;;;;;;8.48;74.37;101087.84;5030912;28;20095;-80
2023/04/09 00:43:35;;;;;;;0.95;0.30;;;;;;;8.47;74.68;101096.59;5030813;28;20108;-81
2023/04/09 00:46:01;;;;;;;0.50;0.30;;;;;;;8.50;74.51;101092.94;5026988;28;20048;-80
2023/04/09 00:48:27;;;;;;;0.68;0.20;;;;;;;8.51;74.89;101089.38;5033012;28;20041;-80
2023/04/09 00:50:52;;;;;;;0.50;0.25;;;;;;;8.51;74.68;101097.16;5032131;28;20384;-80
2023/04/09 00:53:19;;;;;;;1.63;0.30;;;;;;;8.51;75.00;101097.16;5024985;28;20127;-80
2023/04/09 00:55:44;;;;;;;0.75;0.30;;;;;;;8.49;74.67;101094.72;5019726;28;20026;-80
2023/04/09 00:58:10;;;;;;;0.50;0.20;;;;;;;8.49;74.35;101099.06;5023227;28;20040;-80
2023/04/09 01:00:36;;;;;;;1.33;0.30;;;;;;;8.45;74.62;101100.25;5016176;28;20026;-79
2023/04/09 01:03:04;;;;;;;0.47;0.30;;;;;;;8.41;74.93;101102.25;5027396;28;20452;-79
2023/04/09 01:06:03;;;;;;;0.40;0.20;;;;;;;8.25;76.98;101096.50;5025009;28;20053;-79
2023/04/09 01:08:50;;;;;;;0.40;0.20;;;;;;;8.18;76.86;101101.31;5020277;28;20494;-79
2023/04/09 01:11:38;;;;;;;0.70;0.20;;;;;;;8.18;76.19;101095.31;5019056;28;20034;-80
2023/04/09 01:14:30;;;;;;;0.70;0.20;;;;;;;8.22;76.49;101102.75;5028668;28;20041;-79
2023/04/09 01:17:02;;;;;;;0.40;0.20;;;;;;;8.12;76.45;101093.97;5030685;28;20459;-80
2023/04/09 01:19:55;;;;;;;0.50;0.25;;;;;;;8.09;76.60;101101.16;5022505;28;20065;-80
2023/04/09 01:22:31;;;;;;;0.50;0.20;;;;;;;8.05;75.95;101104.91;5020379;28;20475;-79
2023/04/09 01:25:08;;;;;;;0.68;0.20;;;;;;;8.07;75.36;101097.84;5020971;28;20046;-79
2023/04/09 01:27:45;;;;;;;0.60;0.20;;;;;;;8.08;75.02;101099.50;5035409;28;20075;-79
2023/04/09 01:30:15;;;;;;;0.38;0.20;;;;;;;8.07;75.06;101103.03;5026319;28;20056;-79
2023/04/09 01:32:42;;;;;;;0.60;0.20;;;;;;;8.08;74.98;101100.34;5031793;28;20048;-79
2023/04/09 01:35:08;;;;;;;0.90;0.20;;;;;;;8.10;75.19;101101.06;5026767;28;20037;-79
2023/04/09 01:37:35;;;;;;;0.40;0.20;;;;;;;8.07;75.61;101103.88;5028589;28;20031;-79
2023/04/09 01:40:01;;;;;;;0.45;0.20;;;;;;;8.04;74.72;101101.50;5027616;28;20033;-80
2023/04/09 01:42:28;;;;;;;0.70;0.20;;;;;;;8.03;74.37;101099.88;5026932;28;20144;-79
2023/04/09 01:44:54;;;;;;;0.30;0.10;;;;;;;8.06;74.07;101088.41;5028501;28;20024;-78
2023/04/09 01:47:20;;;;;;;0.90;0.82;;;;;;;8.09;73.15;101096.81;5025282;28;20087;-79
2023/04/09 01:49:45;;;;;;;0.82;0.30;;;;;;;8.07;73.49;101101.28;5028396;28;20040;-79
2023/04/09 01:52:11;;;;;;;0.77;0.60;;;;;;;8.01;74.03;101104.34;5031394;28;20037;-79
2023/04/09 01:54:36;;;;;;;0.50;0.30;;;;;;;7.97;73.47;101095.13;5031083;28;20029;-80
2023/04/09 01:57:02;;;;;;;2.00;0.30;;;;;;;7.95;73.30;101100.44;5031912;28;20029;-79
2023/04/09 01:59:27;;;;;;;0.32;0.20;;;;;;;7.96;72.90;101102.09;5040571;28;20071;-79
2023/04/09 02:01:58;;;;;;;0.40;0.20;;;;;;;7.98;72.87;101101.97;5036120;28;20072;-80
2023/04/09 02:04:38;;;;;;;0.60;0.20;;;;;;;7.95;72.69;101099.59;5034254;28;20042;-79
2023/04/09 02:07:11;;;;;;;0.50;0.25;;;;;;;7.99;72.56;101098.44;5035256;28;20103;-78
2023/04/09 02:09:39;;;;;;;0.50;0.20;;;;;;;8.06;72.80;101096.19;5037523;28;20029;-78
2023/04/09 02:12:09;;;;;;;0.50;0.20;;;;;;;8.01;73.08;101103.53;5026560;28;20047;-78
2023/04/09 02:14:37;;;;;;;0.30;0.17;;;;;;;8.02;73.67;101100.81;5028854;28;20129;-79
2023/04/09 02:17:03;;;;;;;0.25;0.20;;;;;;;8.01;74.12;101095.75;5028966;28;20342;-78
2023/04/09 02:19:39;;;;;;;0.47;0.25;;;;;;;7.95;75.18;101102.19;5027044;28;20509;-79
2023/04/09 02:22:05;;;;;;;;;;;;;;;7.83;77.13;101096.13;5029222;28;20033;-79
2023/04/09 02:24:30;;;;;;;0.50;0.20;;;;;;;7.78;76.32;101108.59;5031816;28;19912;-79
2023/04/09 02:26:55;;;;;;;0.50;0.25;;;;;;;7.76;77.09;101100.09;5028254;28;20029;-78
2023/04/09 02:29:21;;;;;;;0.50;0.30;;;;;;;7.73;77.83;101105.50;5031574;28;20099;-79
2023/04/09 02:31:46;;;;;;;0.30;0.20;;;;;;;7.73;76.92;101095.13;5031763;28;20034;-79
2023/04/09 02:34:11;;;;;;;0.40;0.20;;;;;;;7.79;76.26;101105.06;5031738;28;20077;-79
2023/04/09 02:36:37;;;;;;;0.43;0.20;;;;;;;7.79;76.15;101106.84;5026539;28;20030;-79
2023/04/09 02:39:03;;;;;;;0.35;0.28;;;;;;;7.77;76.28;101113.91;5022068;28;21022;-79
2023/04/09 02:41:28;;;;;;;0.25;0.20;;;;;;;7.72;76.58;101113.41;5025749;28;20029;-79
2023/04/09 02:43:53;;;;;;;0.35;0.20;;;;;;;7.69;76.17;101114.44;5029270;28;20037;-79
2023/04/09 02:46:19;;;;;;;0.40;0.20;;;;;;;7.73;76.04;101107.28;5027543;28;20044;-79
2023/04/09 02:48:44;;;;;;;0.40;0.20;;;;;;;7.73;76.08;101104.69;5033960;28;20321;-79
2023/04/09 02:51:10;;;;;;;0.40;0.22;;;;;;;7.65;76.32;101102.63;5029974;28;20030;-79
2023/04/09 02:53:36;;;;;;;0.70;0.22;;;;;;;7.60;76.79;101102.97;5030923;28;20132;-79
2023/04/09 02:56:02;;;;;;;0.40;0.15;;;;;;;7.54;77.21;101103.44;5029909;28;20033;-80
2023/04/09 02:58:27;;;;;;;0.45;0.20;;;;;;;7.52;77.19;101102.72;5020470;28;20053;-78
2023/04/09 03:00:53;;;;;;;0.65;0.10;;;;;;;7.53;76.95;101106.97;5027034;28;20027;-78
2023/04/09 03:03:18;;;;;;;0.50;0.20;;;;;;;7.48;77.43;101090.91;5036152;28;20041;-78
2023/04/09 03:05:44;;;;;;;0.40;0.20;;;;;;;7.46;78.26;101097.13;5025571;28;20566;-78
2023/04/09 03:08:10;;;;;;;0.40;0.20;;;;;;;7.44;78.33;101084.28;5037306;28;20091;-78
2023/04/09 03:10:35;;;;;;;0.30;0.10;;;;;;;7.43;78.19;101086.97;5027339;28;20030;-78
2023/04/09 03:13:00;;;;;;;0.38;0.20;;;;;;;7.39;79.52;101096.72;5025471;28;20052;-78
2023/04/09 03:15:26;;;;;;;0.60;0.20;;;;;;;7.32;78.91;101095.50;5029308;28;20022;-78
2023/04/09 03:17:51;;;;;;;0.50;0.30;;;;;;;7.30;79.63;101084.41;5012957;28;20025;-80
2023/04/09 03:20:16;;;;;;;0.38;0.20;;;;;;;7.26;79.97;101094.16;5016620;28;20040;-80
2023/04/09 03:22:42;;;;;;;0.70;0.30;;;;;;;7.26;79.59;101093.34;5021336;28;20056;-79
2023/04/09 03:25:08;;;;;;;1.48;0.20;;;;;;;7.23;80.03;101101.34;5029106;28;20451;-80
2023/04/09 03:27:33;;;;;;;0.43;0.20;;;;;;;7.21;80.43;101100.63;5021092;28;20096;-79
2023/04/09 03:29:59;;;;;;;0.63;0.30;;;;;;;7.19;80.56;101094.72;5027614;28;20376;-80
2023/04/09 03:32:24;;;;;;;0.73;0.30;;;;;;;7.16;81.77;101094.91;5025752;28;20048;-80
2023/04/09 03:34:49;;;;;;;0.50;0.28;;;;;;;7.15;82.32;101099.28;5029931;28;20029;-80
2023/04/09 03:37:15;;;;;;;0.80;0.20;;;;;;;7.15;82.24;101101.88;5029079;28;20033;-80
2023/04/09 03:39:40;;;;;;;1.10;0.30;;;;;;;7.16;82.60;101107.88;5026574;28;20051;-80
2023/04/09 03:42:06;;;;;;;0.60;0.30;;;;;;;7.14;82.74;101101.97;5030703;28;20038;-80
2023/04/09 03:44:31;;;;;;;0.60;0.30;;;;;;;7.08;82.75;101099.84;5024576;28;20033;-80
2023/04/09 03:46:57;;;;;;;0.57;0.30;;;;;;;7.08;82.45;101092.88;5026310;28;20033;-79
2023/04/09 03:49:22;;;;;;;0.57;0.25;;;;;;;7.08;82.38;101094.66;5022200;28;20063;-80
2023/04/09 03:51:48;;;;;;;0.47;0.28;;;;;;;7.09;81.37;101094.50;5027843;28;20502;-79
2023/04/09 03:54:13;;;;;;;1.00;0.30;;;;;;;7.11;81.23;101097.00;5025954;28;20025;-79
2023/04/09 03:56:38;;;;;;;0.90;0.30;;;;;;;7.10;82.18;101097.94;5014093;28;20038;-79
2023/04/09 03:59:04;;;;;;;0.60;0.30;;;;;;;7.06;83.00;101104.28;5023377;28;20104;-80
2023/04/09 04:01:29;;;;;;;0.47;0.20;;;;;;;6.96;84.05;101110.09;5011728;28;20029;-79
2023/04/09 04:03:54;;;;;;;0.63;0.30;;;;;;;6.93;83.13;101110.31;5027137;28;20040;-80
2023/04/09 04:06:20;;;;;;;1.00;0.32;;;;;;;6.90;82.36;101102.75;5023090;28;21286;-79
2023/04/09 04:08:45;;;;;;;3.67;0.40;;;;;;;6.93;82.95;101099.94;5032043;28;20044;-80
2023/04/09 04:11:11;;;;;;;0.77;0.40;;;;;;;6.90;82.87;101102.75;5033909;28;20490;-80
2023/04/09 04:13:36;;;;;;;0.50;0.25;;;;;;;6.87;82.28;101113.31;5028963;28;20175;-80
2023/04/09 04:16:06;;;;;;;0.60;0.20;;;;;;;6.94;79.34;101109.38;5019756;28;20396;-80
2023/04/09 04:18:31;;;;;;;0.70;0.32;;;;;;;7.00;79.35;101113.31;5029661;28;20042;-80
2023/04/09 04:20:57;;;;;;;1.95;0.40;;;;;;;7.01;79.57;101116.72;5019428;28;20030;-80
2023/04/09 04:23:22;;;;;;;0.52;0.28;;;;;;;6.97;79.92;101111.75;5018800;28;20041;-80
2023/04/09 04:25:47;;;;;;;0.82;0.40;;;;;;;6.82;80.59;101119.75;5025836;28;20029;-81
2023/04/09 04:28:13;;;;;;;0.40;0.30;;;;;;;6.72;81.14;101123.88;5024016;28;20468;-81
2023/04/09 04:30:41;;;;;;;0.70;0.30;;;;;;;6.65;81.40;101120.88;5029162;28;20041;-80
2023/04/09 04:33:06;;;;;;;0.60;0.30;;;;;;;6.51;82.36;101113.22;5031387;28;20064;-79
2023/04/09 04:35:32;;;;;;;0.70;0.30;;;;;;;6.39;82.79;101124.41;5026626;28;20058;-80
2023/04/09 04:37:57;;;;;;;1.13;0.35;;;;;;;6.29;83.42;101108.63;5027658;28;20040;-80
2023/04/09 04:40:23;;;;;;;0.80;0.40;;;;;;;6.20;83.42;101111.81;5024784;28;20125;-80
2023/04/09 04:42:48;;;;;;;2.05;0.45;;;;;;;6.14;84.52;101118.25;5029263;28;20487;-80
2023/04/09 04:45:14;;;;;;;2.08;0.30;;;;;;;6.04;84.14;101121.53;5021717;28;20121;-79
2023/04/09 04:47:39;;;;;;;1.00;0.43;;;;;;;6.00;84.53;101118.31;5022385;28;20040;-80
2023/04/09 04:50:06;;;;;;;0.73;0.35;;;;;;;5.94;84.94;101121.31;5029165;28;20028;-80
2023/04/09 04:52:31;;;;;;;0.90;0.32;;;;;;;5.89;85.65;101125.94;5028401;28;20087;-80
2023/04/09 04:54:56;;;;;;;0.85;0.43;;;;;;;5.89;85.31;101120.75;5029593;28;20033;-80
2023/04/09 04:57:22;;;;;;;0.90;0.35;;;;;;;5.95;85.00;101125.53;5028772;28;20033;-80
2023/04/09 04:59:47;;;;;;;1.00;0.47;;;;;;;5.92;84.91;101128.31;5025428;28;20037;-80
2023/04/09 05:02:12;;;;;;;1.23;0.60;;;;;;;5.91;85.03;101119.75;5018622;28;20029;-80
2023/04/09 05:04:38;;;;;;;0.82;0.40;;;;;;;5.97;85.34;101124.53;5018049;28;20041;-80
2023/04/09 05:07:03;;;;;;;1.50;0.43;;;;;;;6.01;85.01;101126.91;5026450;28;20437;-80
2023/04/09 05:09:29;;;;;;;0.90;0.50;;;;;;;6.09;84.40;101128.06;5026230;28;20033;-80
2023/04/09 05:11:56;;;;;;;1.60;0.70;;;;;;;6.15;84.50;101129.41;5025234;28;20048;-80
2023/04/09 05:14:21;;;;;;;1.15;0.40;;;;;;;6.19;84.10;101134.28;5020021;28;20475;-80
2023/04/09 05:16:46;;;;;;;1.05;0.43;;;;;;;6.22;83.44;101125.50;5023021;28;20044;-80
2023/04/09 05:19:12;;;;;;;0.85;0.35;;;;;;;6.32;83.43;101134.31;5022776;28;20056;-80
2023/04/09 05:21:37;;;;;;;1.35;0.60;;;;;;;6.31;83.70;101128.31;5023610;28;20030;-81
2023/04/09 05:24:03;;;;;;;1.15;0.60;;;;;;;6.27;83.63;101137.22;5024335;28;20033;-80
2023/04/09 05:26:28;;;;;;;1.45;0.75;;;;;;;6.45;81.53;101136.94;5031915;28;20498;-80
2023/04/09 05:28:54;;;;;;;1.10;0.60;;;;;;;6.60;80.35;101130.75;5028170;28;20032;-80
2023/04/09 05:31:20;;;;;;;1.38;0.77;;;;;;;6.73;78.89;101134.16;5030841;28;20120;-79
2023/04/09 05:33:45;;;;;;;1.90;0.77;;;;;;;6.74;79.44;101134.97;5030801;28;20056;-79
2023/04/09 05:36:16;;;;;;;1.55;1.10;;;;;;;6.64;80.24;101145.94;5029233;28;20181;-79
2023/04/09 05:38:42;;;;;;;2.88;1.48;;;;;;;6.57;80.96;101151.66;5026441;28;21671;-79
2023/04/09 05:41:07;;;;;;;2.25;1.08;;;;;;;6.51;81.53;101149.47;5029114;28;20032;-78
2023/04/09 05:43:32;;;;;;;2.30;1.17;;;;;;;6.51;82.25;101160.66;5030427;28;20029;-79
2023/04/09 05:45:58;;;;;;;4.63;1.77;;;;;;;6.40;82.98;101154.53;5026416;28;20461;-79
2023/04/09 05:48:23;;;;;;;2.63;1.52;;;;;;;6.45;82.72;101160.22;5030313;28;20037;-79
2023/04/09 05:50:52;;;;;;;2.88;1.58;;;;;;;6.56;81.76;101163.78;5025319;28;20518;-80
2023/04/09 05:53:18;;;;;;;2.10;1.38;;;;;;;6.66;82.03;101159.63;5024117;28;20041;-80
2023/04/09 05:55:44;;;;;;;2.53;1.58;;;;;;;6.69;82.26;101158.59;5025051;28;20033;-80
2023/04/09 05:58:10;;;;;;;2.95;1.50;;;;;;;6.79;81.61;101169.16;5025541;28;20444;-79
2023/04/09 06:00:36;;;;;;;2.53;1.27;;;;;;;6.86;80.79;101160.88;5031351;28;20067;-77
2023/04/09 06:03:01;;;;;;;1.70;1.00;;;;;;;7.03;79.62;101164.09;5033505;28;20044;-77
2023/04/09 06:05:27;;;;;;;2.30;1.10;;;;;;;7.19;78.76;101165.50;5021986;28;20452;-77
2023/04/09 06:07:52;;;;;;;2.45;1.40;;;;;;;7.31;78.56;101171.63;5026753;28;20037;-79
2023/04/09 06:10:18;;;;;;;1.95;1.20;;;;;;;7.50;77.35;101172.00;5024223;28;20490;-79
2023/04/09 06:12:44;;;;;;;3.05;1.50;;;;;;;7.66;76.44;101171.72;5028643;28;20045;-79
2023/04/09 06:15:10;;;;;;;2.28;1.00;;;;;;;7.78;75.56;101172.63;5028033;28;20059;-78
2023/04/09 06:17:36;;;;;;;1.80;1.00;;;;;;;7.97;74.17;101178.16;5029233;28;20132;-79
2023/04/09 06:20:01;;;;;;;1.17;0.52;;;;;;;8.10;71.80;101176.31;5029967;28;20327;-78
2023/04/09 06:22:26;;;;;;;1.08;0.50;;;;;;;8.24;69.81;101173.56;5029366;28;20517;-74
2023/04/09 06:24:52;;;;;;;0.88;0.45;;;;;;;8.40;68.62;101173.28;5022916;28;20033;-77
2023/04/09 06:27:17;;;;;;;0.80;0.40;;;;;;;8.41;68.36;101166.34;5021764;28;20095;-76
2023/04/09 06:29:43;;;;;;;1.02;0.45;;;;;;;8.59;66.53;101180.53;5024586;28;20123;-77
2023/04/09 06:32:09;;;;;;;1.67;0.60;;;;;;;8.84;65.97;101171.75;5025313;28;20037;-77
2023/04/09 06:34:34;;;;;;;0.93;0.47;;;;;;;9.11;65.00;101177.41;5026608;28;20040;-77
2023/04/09 06:37:00;;;;;;;1.48;0.60;;;;;;;9.28;64.69;101176.13;5023485;28;20029;-76
2023/04/09 06:39:26;;;;;;;0.75;0.40;;;;;;;9.27;64.97;101175.28;5027846;28;20034;-77
2023/04/09 06:41:52;;;;;;;0.95;0.40;;;;;;;9.35;64.63;101172.09;5034155;28;20053;-77
2023/04/09 06:44:18;;;;;;;0.80;0.38;;;;;;;9.76;64.26;101183.63;5030085;28;20146;-76
2023/04/09 06:46:44;;;;;;;1.02;0.40;;;;;;;10.11;64.06;101175.59;5026747;28;20048;-77
2023/04/09 06:49:09;;;;;;;0.80;0.40;;;;;;;9.97;63.82;101185.31;5029399;28;20025;-77
2023/04/09 06:51:35;;;;;;;0.85;0.50;;;;;;;10.29;63.63;101180.16;5036044;28;20406;-77
2023/04/09 06:54:00;;;;;;;2.30;0.40;;;;;;;10.05;62.20;101184.72;5029518;28;20042;-78
2023/04/09 06:56:25;;;;;;;1.27;0.20;;;;;;;10.12;61.93;101180.66;5019561;28;20049;-77
2023/04/09 06:58:51;;;;;;;0.88;0.32;;;;;;;9.91;62.27;101179.81;5025950;28;20159;-77
2023/04/09 07:01:16;;;;;;;1.20;0.40;;;;;;;10.11;62.48;101181.63;5032076;28;20037;-78
2023/04/09 07:03:42;;;;;;;0.82;0.32;;;;;;;10.44;61.65;101183.25;5028839;28;20026;-77
2023/04/09 07:06:07;;;;;;;0.73;0.40;;;;;;;10.74;60.71;101185.13;5025811;28;20144;-79
2023/04/09 07:08:32;;;;;;;0.90;0.30;;;;;;;11.00;60.42;101189.91;5033502;28;20029;-78
2023/04/09 07:10:58;;;;;;;0.52;0.30;;;;;;;10.86;59.58;101181.50;5027153;28;20478;-78
2023/04/09 07:13:23;;;;;;;0.60;0.35;;;;;;;10.68;59.90;101187.41;5021702;28;20505;-77
2023/04/09 07:15:49;;;;;;;1.05;0.77;;;;;;;10.78;59.94;101196.94;5026057;28;20034;-77
2023/04/09 07:18:14;;;;;;;0.55;0.40;;;;;;;11.14;59.46;101184.38;5023951;28;20034;-76
2023/04/09 07:20:39;;;;;;;0.80;0.50;;;;;;;11.60;58.53;101202.94;5029390;28;20040;-77
2023/04/09 07:23:05;;;;;;;0.77;0.40;;;;;;;11.70;57.79;101209.97;5033638;28;20112;-78
2023/04/09 07:25:31;;;;;;;0.63;0.35;;;;;;;11.08;57.81;101198.75;5027509;28;20037;-73
2023/04/09 07:27:56;;;;;;;0.80;0.40;;;;;;;11.14;58.12;101202.63;5031224;28;20104;-80
2023/04/09 07:30:22;;;;;;;0.60;0.40;;;;;;;11.34;57.43;101204.38;5027463;28;20507;-78
2023/04/09 07:32:47;;;;;;;0.90;0.40;;;;;;;11.64;56.90;101206.94;5025084;28;20517;-78
2023/04/09 07:35:13;;;;;;;0.68;0.40;;;;;;;12.22;55.68;101206.22;5024393;28;20406;-78
2023/04/09 07:37:38;;;;;;;0.80;0.30;;;;;;;12.43;54.42;101203.44;5021058;28;20048;-78
2023/04/09 07:40:04;;;;;;;0.85;0.40;;;;;;;12.86;53.61;101200.34;5023242;28;20241;-78
2023/04/09 07:42:30;;;;;;;0.80;0.35;;;;;;;12.95;52.79;101202.94;5032563;28;20041;-78
2023/04/09 07:44:55;;;;;;;0.75;0.50;;;;;;;13.88;51.80;101191.50;5021345;28;20124;-78
2023/04/09 07:47:21;;;;;;;0.70;0.30;;;;;;;14.92;49.19;101195.16;5019912;28;20240;-79
2023/04/09 07:49:47;;;;;;;1.35;0.30;;;;;;;13.82;49.76;101199.13;5024934;28;20215;-80
2023/04/09 07:52:12;;;;;;;0.95;0.38;;;;;;;14.32;49.26;101193.38;5022711;28;20044;-79
2023/04/09 07:54:38;;;;;;;1.02;0.50;;;;;;;13.87;48.97;101197.72;5019145;28;20037;-79
2023/04/09 07:57:03;;;;;;;0.70;0.40;;;;;;;13.51;50.11;101196.00;5022627;28;20046;-78
2023/04/09 07:59:30;;;;;;;1.40;0.80;;;;;;;12.75;51.13;101198.75;5021188;28;20066;-78
2023/04/09 08:01:56;;;;;;;1.10;0.60;;;;;;;12.92;52.45;101200.63;5025990;28;20052;-77
2023/04/09 08:04:21;;;;;;;0.82;0.40;;;;;;;12.91;52.05;101198.16;5021128;28;20423;-78
2023/04/09 08:06:49;;;;;;;0.77;0.38;;;;;;;13.02;51.86;101205.81;5023195;28;20558;-77
2023/04/09 08:09:18;;;;;;;0.75;0.35;;;;;;;13.05;51.89;101207.34;5029389;28;20413;-75
2023/04/09 08:11:46;;;;;;;1.00;0.50;;;;;;;12.58;51.56;101205.50;5030655;28;20025;-76
2023/04/09 08:14:13;;;;;;;0.63;0.35;;;;;;;12.70;53.12;101205.38;5028486;28;20494;-75
2023/04/09 08:16:43;;;;;;;0.90;0.45;;;;;;;12.86;51.71;101206.41;5028479;28;20046;-77
2023/04/09 08:19:09;;;;;;;0.55;0.30;;;;;;;12.97;50.79;101202.81;5026239;28;20108;-78
2023/04/09 08:21:42;;;;;;;0.80;0.43;;;;;;;13.47;50.71;101210.38;5028576;28;20151;-79
2023/04/09 08:24:10;;;;;;;1.30;0.68;;;;;;;13.95;50.40;101210.09;5020814;28;20033;-80
2023/04/09 08:26:39;;;;;;;0.60;0.30;;;;;;;13.98;50.44;101207.16;5030208;28;20040;-80
2023/04/09 08:29:05;;;;;;;0.70;0.30;;;;;;;13.51;50.73;101216.97;5022768;28;20116;-79
2023/04/09 08:31:31;;;;;;;1.13;0.40;;;;;;;13.91;50.62;101220.03;5027222;28;20647;-79
2023/04/09 08:33:57;;;;;;;0.73;0.50;;;;;;;14.09;50.47;101212.19;5029447;28;20068;-80
2023/04/09 08:36:22;;;;;;;0.52;0.30;;;;;;;14.08;50.39;101210.53;5023602;28;20083;-78
2023/04/09 08:38:48;;;;;;;0.60;0.38;;;;;;;14.48;50.94;101217.97;5024351;28;20039;-79
2023/04/09 08:41:24;;;;;;;0.77;0.30;;;;;;;15.00;48.42;101217.19;5030564;28;20372;-79
2023/04/09 08:43:51;;;;;;;1.00;0.30;;;;;;;14.89;49.40;101219.09;5026120;28;20033;-79
2023/04/09 08:46:19;;;;;;;0.80;0.50;;;;;;;14.23;50.69;101214.28;5019105;28;20039;-78
2023/04/09 08:48:46;;;;;;;0.80;0.40;;;;;;;14.91;50.13;101214.50;5028137;28;20067;-78
2023/04/09 08:51:16;;;;;;;0.98;0.40;;;;;;;14.54;48.75;101227.03;5023383;28;20136;-67
2023/04/09 08:53:51;;;;;;;0.75;0.40;;;;;;;14.32;49.35;101228.28;5021408;28;20032;-79
2023/04/09 08:56:17;;;;;;;0.90;0.50;;;;;;;13.68;49.52;101215.38;5024769;28;20034;-77
2023/04/09 08:58:43;;;;;;;1.15;0.50;;;;;;;13.66;49.68;101225.97;5030660;28;20047;-80
2023/04/09 09:01:21;;;;;;;0.82;0.40;;;;;;;13.68;48.57;101223.22;5027960;28;20025;-80
2023/04/09 09:03:55;;;;;;;1.17;0.40;;;;;;;14.13;46.99;101215.34;5026015;28;20033;-79
2023/04/09 09:06:21;;;;;;;0.88;0.40;;;;;;;13.60;47.82;101229.19;5022593;28;20045;-79
2023/04/09 09:08:59;;;;;;;1.20;0.50;;;;;;;13.36;48.34;101227.06;5028770;28;20485;-75
2023/04/09 09:11:25;;;;;;;0.85;0.40;;;;;;;12.84;47.99;101217.97;5028129;28;20454;-81
2023/04/09 09:13:59;;;;;;;0.80;0.40;;;;;;;12.50;48.18;101222.84;5027038;28;20376;-78
2023/04/09 09:16:26;;;;;;;1.23;0.50;;;;;;;12.40;49.73;101227.25;5025102;28;20421;-79
2023/04/09 09:18:51;;;;;;;0.90;0.43;;;;;;;12.24;49.89;101219.97;5033020;28;20052;-79
2023/04/09 09:21:18;;;;;;;1.17;0.55;;;;;;;12.70;50.15;101210.59;5026731;28;20034;-77
2023/04/09 09:23:44;;;;;;;0.88;0.63;;;;;;;12.38;50.53;101218.72;5021204;28;20191;-78
2023/04/09 09:26:15;;;;;;;0.70;0.45;;;;;;;11.92;50.61;101228.03;5024349;28;20035;-80
2023/04/09 09:28:41;;;;;;;1.50;0.63;;;;;;;11.77;50.70;101224.19;5023078;28;20045;-80
2023/04/09 09:31:11;;;;;;;0.90;0.50;;;;;;;11.59;50.92;101219.56;5026386;28;20035;-80
2023/04/09 09:33:37;;;;;;;1.25;0.50;;;;;;;11.59;50.69;101216.94;5032823;28;20074;-83
2023/04/09 09:36:03;;;;;;;0.65;0.35;;;;;;;11.81;50.71;101220.34;5033260;28;20513;-80
2023/04/09 09:38:29;;;;;;;0.90;0.50;;;;;;;12.01;50.26;101219.41;5026420;28;20029;-80
2023/04/09 09:40:54;;;;;;;0.73;0.40;;;;;;;12.00;50.59;101217.75;5029066;28;20029;-79
2023/04/09 09:43:20;;;;;;;1.83;0.45;;;;;;;12.12;50.66;101215.84;5026130;28;20034;-81
2023/04/09 09:45:47;;;;;;;0.88;0.60;;;;;;;12.30;50.15;101201.09;5029384;28;20390;-74
2023/04/09 09:48:13;;;;;;;0.93;0.50;;;;;;;12.45;49.67;101211.97;5033030;28;20116;-75
2023/04/09 09:50:42;;;;;;;0.88;0.50;;;;;;;12.31;49.25;101208.00;5028370;28;20040;-75
2023/04/09 09:53:10;;;;;;;1.80;0.60;;;;;;;12.16;49.90;101218.03;5028099;28;20107;-75
2023/04/09 09:55:40;;;;;;;0.60;0.40;;;;;;;12.19;50.03;101212.53;5028252;28;20114;-75
2023/04/09 09:58:30;;;;;;;0.70;0.40;;;;;;;12.13;48.38;101201.81;5034935;28;20069;-75
2023/04/09 10:00:57;;;;;;;1.00;0.40;;;;;;;11.88;50.90;101206.59;5038478;28;20423;-75
2023/04/09 10:03:26;;;;;;;1.00;0.50;;;;;;;11.98;50.82;101206.59;5046814;28;20033;-76
2023/04/09 10:05:52;;;;;;;0.85;0.40;;;;;;;11.96;50.68;101218.97;5039314;28;20045;-75
2023/04/09 10:08:20;;;;;;;1.02;0.60;;;;;;;11.95;50.71;101204.25;5040803;28;20045;-75
2023/04/09 10:10:47;;;;;;;0.88;0.55;;;;;;;12.01;50.63;101200.28;5044543;28;20079;-76
2023/04/09 10:13:20;;;;;;;0.90;0.40;;;;;;;12.02;51.44;101194.94;5045923;28;20025;-76
2023/04/09 10:15:46;;;;;;;1.15;0.40;;;;;;;12.02;52.73;101200.16;5052009;28;20041;-76
2023/04/09 10:18:13;;;;;;;1.02;0.45;;;;;;;12.09;51.56;101209.09;5029997;28;20547;-74
2023/04/09 10:20:50;;;;;;;1.08;0.57;;;;;;;11.93;51.70;101195.72;5025840;28;20113;-75
2023/04/09 10:23:30;;;;;;;0.90;0.57;;;;;;;11.98;51.38;101204.00;5029174;28;20116;-74
2023/04/09 10:25:55;;;;;;;0.60;0.40;;;;;;;12.04;51.34;101203.44;5032293;28;20464;-74
2023/04/09 10:28:22;;;;;;;1.35;0.40;;;;;;;11.87;51.79;101201.50;5029505;28;20033;-76
2023/04/09 10:30:47;;;;;;;0.80;0.40;;;;;;;11.74;51.21;101200.91;5030449;28;20030;-75
2023/04/09 10:33:25;;;;;;;1.05;0.30;;;;;;;11.83;50.39;101189.66;5032012;28;20048;-74
2023/04/09 10:35:51;;;;;;;1.05;0.40;;;;;;;11.74;51.14;101201.75;5033685;28;20037;-75
2023/04/09 10:38:36;;;;;;;0.90;0.40;;;;;;;11.58;50.54;101189.19;5028721;28;20033;-75
2023/04/09 10:41:20;;;;;;;1.27;0.50;;;;;;;11.73;51.46;101180.97;5021383;28;20112;-75
2023/04/09 10:43:46;;;;;;;0.88;0.50;;;;;;;11.99;50.72;101196.97;5022891;28;20043;-76
2023/04/09 10:46:44;;;;;;;1.50;0.40;;;;;;;12.05;50.70;101186.81;5027137;28;20063;-76
2023/04/09 10:49:12;;;;;;;2.83;0.40;;;;;;;12.03;50.49;101178.28;5021945;28;20044;-75
2023/04/09 10:51:38;;;;;;;0.90;0.40;;;;;;;11.98;50.42;101188.31;5040647;28;20037;-75
2023/04/09 10:54:32;;;;;;;0.70;0.30;;;;;;;12.22;51.36;101180.94;5021945;28;20092;-75
2023/04/09 10:57:07;;;;;;;0.70;0.45;;;;;;;12.24;49.47;101186.00;5030294;28;20049;-76
2023/04/09 10:59:36;;;;;;;1.42;0.57;;;;;;;12.16;51.00;101183.25;5025987;28;20083;-75
2023/04/09 11:02:05;;;;;;;0.98;0.50;;;;;;;12.19;51.36;101177.75;5030909;28;20036;-74
2023/04/09 11:04:36;;;;;;;1.35;0.57;;;;;;;12.24;50.51;101173.78;5030184;28;20045;-75
2023/04/09 11:07:05;;;;;;;0.70;0.30;;;;;;;12.32;50.15;101172.22;5026020;28;20036;-74
2023/04/09 11:09:36;;;;;;;0.93;0.40;;;;;;;12.40;49.67;101170.56;5029122;28;20049;-75
2023/04/09 11:12:02;;;;;;;1.35;0.60;;;;;;;12.36;50.48;101171.81;5032637;28;20112;-75
2023/04/09 11:14:28;;;;;;;0.82;0.40;;;;;;;12.75;50.40;101164.75;5031749;28;20059;-75
2023/04/09 11:16:53;;;;;;;0.82;0.45;;;;;;;12.79;50.14;101157.44;5033277;28;20398;-75
2023/04/09 11:19:20;;;;;;;0.95;0.40;;;;;;;12.78;49.95;101174.91;5032612;28;20044;-76
2023/04/09 11:21:47;;;;;;;1.02;0.40;;;;;;;12.75;50.04;101175.22;5026036;28;20328;-75
2023/04/09 11:24:13;;;;;;;0.90;0.40;;;;;;;12.88;50.06;101165.25;5026856;28;20375;-75
2023/04/09 11:26:38;;;;;;;1.10;0.50;;;;;;;12.91;48.99;101166.75;5026418;28;20033;-76
2023/04/09 11:29:08;;;;;;;0.82;0.45;;;;;;;12.81;49.20;101168.56;5031114;28;20029;-75
2023/04/09 11:31:33;;;;;;;1.05;0.40;;;;;;;12.88;49.46;101161.81;5025011;28;20040;-73